Time;durP1;ratioP1;P1;durP2;ratioP2;P2;SDS_P1;SDS_P2;PMS_P1;PMS_P2;Temp;Humidity;BMP_temperature;BMP_pressure;BME280_temperature;BME280_humidity;BME280_pressure;Samples;Min_cycle;Max_cycle;Signal;HPM_P1;HPM_P2
2021/04/09 00:00:07;;;;;;;5.35;4.15;;;;;;;-0.51;59.60938;95597.31;;;;
2021/04/09 00:01:09;;;;;;;5.35;4.15;;;;;;;-0.51;59.60938;95597.31;;;;
2021/04/09 00:02:09;;;;;;;5.35;4.15;;;;;;;-0.51;59.60938;95597.31;;;;
2021/04/09 00:03:10;;;;;;;5.649999;4.15;;;;;;;-0.43;59.53613;95590.78;;;;
2021/04/09 00:04:11;;;;;;;5.649999;4.15;;;;;;;-0.43;59.53613;95590.78;;;;
2021/04/09 00:05:13;;;;;;;5.649999;4.15;;;;;;;-0.43;59.53613;95590.78;;;;
2021/04/09 00:06:17;;;;;;;5.649999;4.15;;;;;;;-0.43;59.53613;95590.78;;;;
2021/04/09 00:07:18;;;;;;;5.649999;4.15;;;;;;;-0.43;59.53613;95590.78;;;;
2021/04/09 00:08:18;;;;;;;5.649999;4.15;;;;;;;-0.43;59.53613;95590.78;;;;
2021/04/09 00:09:19;;;;;;;5.649999;4.15;;;;;;;-0.43;59.53613;95590.78;;;;
2021/04/09 00:10:19;;;;;;;5.649999;4.15;;;;;;;-0.43;59.53613;95590.78;;;;
2021/04/09 00:11:21;;;;;;;5.649999;4.15;;;;;;;-0.43;59.53613;95590.78;;;;
2021/04/09 00:12:21;;;;;;;5.649999;4.15;;;;;;;-0.43;59.53613;95590.78;;;;
2021/04/09 00:13:22;;;;;;;5.649999;4.15;;;;;;;-0.43;59.53613;95590.78;;;;
2021/04/09 00:14:22;;;;;;;7.1;4.400001;;;;;;;-0.44;59.87109;95587.3;;;;
2021/04/09 00:15:23;;;;;;;7.1;4.400001;;;;;;;-0.44;59.87109;95587.3;;;;
2021/04/09 00:16:24;;;;;;;7.1;4.400001;;;;;;;-0.44;59.87109;95587.3;;;;
2021/04/09 00:17:24;;;;;;;7.1;4.400001;;;;;;;-0.44;59.87109;95587.3;;;;
2021/04/09 00:18:25;;;;;;;7.1;4.400001;;;;;;;-0.44;59.87109;95587.3;;;;
2021/04/09 00:19:25;;;;;;;7.1;4.400001;;;;;;;-0.44;59.87109;95587.3;;;;
2021/04/09 00:20:27;;;;;;;7.1;4.400001;;;;;;;-0.44;59.87109;95587.3;;;;
2021/04/09 00:21:28;;;;;;;7.1;4.400001;;;;;;;-0.44;59.87109;95587.3;;;;
2021/04/09 00:22:28;;;;;;;7.1;4.400001;;;;;;;-0.44;59.87109;95587.3;;;;
2021/04/09 00:23:29;;;;;;;7.1;4.400001;;;;;;;-0.44;59.87109;95587.3;;;;
2021/04/09 00:24:29;;;;;;;6.9;4.1;;;;;;;-0.49;60.28223;95571.95;;;;
2021/04/09 00:25:30;;;;;;;6.9;4.1;;;;;;;-0.49;60.28223;95571.95;;;;
2021/04/09 00:26:30;;;;;;;6.9;4.1;;;;;;;-0.49;60.28223;95571.95;;;;
2021/04/09 00:27:31;;;;;;;6.9;4.1;;;;;;;-0.49;60.28223;95571.95;;;;
2021/04/09 00:28:31;;;;;;;6.9;4.1;;;;;;;-0.49;60.28223;95571.95;;;;
2021/04/09 00:29:32;;;;;;;6.9;4.1;;;;;;;-0.49;60.28223;95571.95;;;;
2021/04/09 00:30:32;;;;;;;6.9;4.1;;;;;;;-0.49;60.28223;95571.95;;;;
2021/04/09 00:31:33;;;;;;;6.9;4.1;;;;;;;-0.49;60.28223;95571.95;;;;
2021/04/09 00:32:35;;;;;;;6.9;4.1;;;;;;;-0.49;60.28223;95571.95;;;;
2021/04/09 00:33:36;;;;;;;6.9;4.1;;;;;;;-0.49;60.28223;95571.95;;;;
2021/04/09 00:34:36;;;;;;;6.9;4.1;;;;;;;-0.49;60.28223;95571.95;;;;
2021/04/09 00:35:37;;;;;;;5.749999;3.45;;;;;;;-0.5;60.20605;95567.63;;;;
2021/04/09 00:36:37;;;;;;;5.749999;3.45;;;;;;;-0.5;60.20605;95567.63;;;;
2021/04/09 00:37:38;;;;;;;5.749999;3.45;;;;;;;-0.5;60.20605;95567.63;;;;
2021/04/09 00:38:39;;;;;;;5.749999;3.45;;;;;;;-0.5;60.20605;95567.63;;;;
2021/04/09 00:39:39;;;;;;;5.749999;3.45;;;;;;;-0.5;60.20605;95567.63;;;;
2021/04/09 00:40:40;;;;;;;5.749999;3.45;;;;;;;-0.5;60.20605;95567.63;;;;
2021/04/09 00:41:41;;;;;;;5.749999;3.45;;;;;;;-0.5;60.20605;95567.63;;;;
2021/04/09 00:42:42;;;;;;;5.749999;3.45;;;;;;;-0.5;60.20605;95567.63;;;;
2021/04/09 00:43:43;;;;;;;5.749999;3.45;;;;;;;-0.5;60.20605;95567.63;;;;
2021/04/09 00:44:45;;;;;;;5.749999;3.45;;;;;;;-0.5;60.20605;95567.63;;;;
2021/04/09 00:45:46;;;;;;;5.15;3.85;;;;;;;-0.53;60.09863;95564.81;;;;
2021/04/09 00:46:47;;;;;;;5.15;3.85;;;;;;;-0.53;60.09863;95564.81;;;;
2021/04/09 00:47:47;;;;;;;5.15;3.85;;;;;;;-0.53;60.09863;95564.81;;;;
2021/04/09 00:48:48;;;;;;;5.15;3.85;;;;;;;-0.53;60.09863;95564.81;;;;
2021/04/09 00:49:48;;;;;;;5.15;3.85;;;;;;;-0.53;60.09863;95564.81;;;;
2021/04/09 00:50:49;;;;;;;5.15;3.85;;;;;;;-0.53;60.09863;95564.81;;;;
2021/04/09 00:51:49;;;;;;;5.15;3.85;;;;;;;-0.53;60.09863;95564.81;;;;
2021/04/09 00:52:50;;;;;;;5.15;3.85;;;;;;;-0.53;60.09863;95564.81;;;;
2021/04/09 00:53:54;;;;;;;5.15;3.85;;;;;;;-0.53;60.09863;95564.81;;;;
2021/04/09 00:54:55;;;;;;;5.15;3.85;;;;;;;-0.53;60.09863;95564.81;;;;
2021/04/09 00:55:56;;;;;;;5.15;3.85;;;;;;;-0.53;60.09863;95564.81;;;;
2021/04/09 00:56:57;;;;;;;7.550001;3.9;;;;;;;-0.64;59.99902;95554.99;;;;
2021/04/09 00:57:59;;;;;;;7.550001;3.9;;;;;;;-0.64;59.99902;95554.99;;;;
2021/04/09 00:59:01;;;;;;;7.550001;3.9;;;;;;;-0.64;59.99902;95554.99;;;;
2021/04/09 01:00:04;;;;;;;7.550001;3.9;;;;;;;-0.64;59.99902;95554.99;;;;
2021/04/09 01:01:08;;;;;;;7.550001;3.9;;;;;;;-0.64;59.99902;95554.99;;;;
2021/04/09 01:02:09;;;;;;;7.550001;3.9;;;;;;;-0.64;59.99902;95554.99;;;;
2021/04/09 01:03:09;;;;;;;7.550001;3.9;;;;;;;-0.64;59.99902;95554.99;;;;
2021/04/09 01:04:10;;;;;;;7.550001;3.9;;;;;;;-0.64;59.99902;95554.99;;;;
2021/04/09 01:05:10;;;;;;;7.550001;3.9;;;;;;;-0.64;59.99902;95554.99;;;;
2021/04/09 01:06:15;;;;;;;7.550001;3.9;;;;;;;-0.64;59.99902;95554.99;;;;
2021/04/09 01:07:15;;;;;;;7.1;3.75;;;;;;;-0.77;59.88672;95537.8;;;;
2021/04/09 01:08:17;;;;;;;7.1;3.75;;;;;;;-0.77;59.88672;95537.8;;;;
2021/04/09 01:09:17;;;;;;;7.1;3.75;;;;;;;-0.77;59.88672;95537.8;;;;
2021/04/09 01:10:18;;;;;;;7.1;3.75;;;;;;;-0.77;59.88672;95537.8;;;;
2021/04/09 01:11:20;;;;;;;7.1;3.75;;;;;;;-0.77;59.88672;95537.8;;;;
2021/04/09 01:12:20;;;;;;;7.1;3.75;;;;;;;-0.77;59.88672;95537.8;;;;
2021/04/09 01:13:22;;;;;;;7.1;3.75;;;;;;;-0.77;59.88672;95537.8;;;;
2021/04/09 01:14:23;;;;;;;7.1;3.75;;;;;;;-0.77;59.88672;95537.8;;;;
2021/04/09 01:15:23;;;;;;;7.1;3.75;;;;;;;-0.77;59.88672;95537.8;;;;
2021/04/09 01:16:24;;;;;;;7.1;3.75;;;;;;;-0.77;59.88672;95537.8;;;;
2021/04/09 01:17:31;;;;;;;7.1;3.75;;;;;;;-0.77;59.88672;95537.8;;;;
2021/04/09 01:18:40;;;;;;;4.45;3.45;;;;;;;-0.89;59.94238;95528.91;;;;
2021/04/09 01:19:55;;;;;;;4.45;3.45;;;;;;;-0.89;59.94238;95528.91;;;;
2021/04/09 01:21:36;;;;;;;4.45;3.45;;;;;;;-0.89;59.94238;95528.91;;;;
2021/04/09 01:22:43;;;;;;;4.45;3.45;;;;;;;-0.89;59.94238;95528.91;;;;
2021/04/09 01:23:48;;;;;;;4.45;3.45;;;;;;;-0.89;59.94238;95528.91;;;;
2021/04/09 01:25:03;;;;;;;4.45;3.45;;;;;;;-0.89;59.94238;95528.91;;;;
2021/04/09 01:26:21;;;;;;;4.45;3.45;;;;;;;-0.89;59.94238;95528.91;;;;
2021/04/09 01:27:56;;;;;;;4.45;3.45;;;;;;;-0.89;59.94238;95528.91;;;;
2021/04/09 01:29:07;;;;;;;5.9;3.1;;;;;;;-0.98;59.96191;95521.01;;;;
2021/04/09 01:30:33;;;;;;;5.9;3.1;;;;;;;-0.98;59.96191;95521.01;;;;
2021/04/09 01:31:48;;;;;;;5.9;3.1;;;;;;;-0.98;59.96191;95521.01;;;;
2021/04/09 01:32:55;;;;;;;5.9;3.1;;;;;;;-0.98;59.96191;95521.01;;;;
2021/04/09 01:33:56;;;;;;;5.9;3.1;;;;;;;-0.98;59.96191;95521.01;;;;
2021/04/09 01:34:58;;;;;;;5.9;3.1;;;;;;;-0.98;59.96191;95521.01;;;;
2021/04/09 01:36:06;;;;;;;5.9;3.1;;;;;;;-0.98;59.96191;95521.01;;;;
2021/04/09 01:37:12;;;;;;;5.9;3.1;;;;;;;-0.98;59.96191;95521.01;;;;
2021/04/09 01:38:18;;;;;;;5.9;3.1;;;;;;;-0.98;59.96191;95521.01;;;;
2021/04/09 01:39:20;;;;;;;6.150001;3.25;;;;;;;-1.01;60.07129;95510.82;;;;
2021/04/09 01:40:29;;;;;;;6.150001;3.25;;;;;;;-1.01;60.07129;95510.82;;;;
2021/04/09 01:41:33;;;;;;;6.150001;3.25;;;;;;;-1.01;60.07129;95510.82;;;;
2021/04/09 01:42:37;;;;;;;6.150001;3.25;;;;;;;-1.01;60.07129;95510.82;;;;
2021/04/09 01:43:40;;;;;;;6.150001;3.25;;;;;;;-1.01;60.07129;95510.82;;;;
2021/04/09 01:44:43;;;;;;;6.150001;3.25;;;;;;;-1.01;60.07129;95510.82;;;;
2021/04/09 01:45:47;;;;;;;6.150001;3.25;;;;;;;-1.01;60.07129;95510.82;;;;
2021/04/09 01:46:50;;;;;;;6.150001;3.25;;;;;;;-1.01;60.07129;95510.82;;;;
2021/04/09 01:47:54;;;;;;;6.150001;3.25;;;;;;;-1.01;60.07129;95510.82;;;;
2021/04/09 01:48:55;;;;;;;6.150001;3.25;;;;;;;-1.01;60.07129;95510.82;;;;
2021/04/09 01:49:56;;;;;;;4.2;3;;;;;;;-1.06;60.17969;95504.27;;;;
2021/04/09 01:50:59;;;;;;;4.2;3;;;;;;;-1.06;60.17969;95504.27;;;;
2021/04/09 01:52:02;;;;;;;4.2;3;;;;;;;-1.06;60.17969;95504.27;;;;
2021/04/09 01:53:05;;;;;;;4.2;3;;;;;;;-1.06;60.17969;95504.27;;;;
2021/04/09 01:54:07;;;;;;;4.2;3;;;;;;;-1.06;60.17969;95504.27;;;;
2021/04/09 01:55:09;;;;;;;4.2;3;;;;;;;-1.06;60.17969;95504.27;;;;
2021/04/09 01:56:12;;;;;;;4.2;3;;;;;;;-1.06;60.17969;95504.27;;;;
2021/04/09 01:57:15;;;;;;;4.2;3;;;;;;;-1.06;60.17969;95504.27;;;;
2021/04/09 01:58:19;;;;;;;4.2;3;;;;;;;-1.06;60.17969;95504.27;;;;
2021/04/09 01:59:21;;;;;;;4.2;3;;;;;;;-1.06;60.17969;95504.27;;;;
2021/04/09 02:00:23;;;;;;;7.249999;3.1;;;;;;;-1.14;60.43066;95493.14;;;;
2021/04/09 02:01:26;;;;;;;7.249999;3.1;;;;;;;-1.14;60.43066;95493.14;;;;
2021/04/09 02:02:27;;;;;;;7.249999;3.1;;;;;;;-1.14;60.43066;95493.14;;;;
2021/04/09 02:03:29;;;;;;;7.249999;3.1;;;;;;;-1.14;60.43066;95493.14;;;;
2021/04/09 02:04:30;;;;;;;7.249999;3.1;;;;;;;-1.14;60.43066;95493.14;;;;
2021/04/09 02:05:32;;;;;;;7.249999;3.1;;;;;;;-1.14;60.43066;95493.14;;;;
2021/04/09 02:06:34;;;;;;;7.249999;3.1;;;;;;;-1.14;60.43066;95493.14;;;;
2021/04/09 02:07:36;;;;;;;7.249999;3.1;;;;;;;-1.14;60.43066;95493.14;;;;
2021/04/09 02:08:38;;;;;;;7.249999;3.1;;;;;;;-1.14;60.43066;95493.14;;;;
2021/04/09 02:09:39;;;;;;;7.249999;3.1;;;;;;;-1.14;60.43066;95493.14;;;;
2021/04/09 02:10:39;;;;;;;7.249999;3.1;;;;;;;-1.14;60.43066;95493.14;;;;
2021/04/09 02:11:40;;;;;;;4.5;2.7;;;;;;;-1.1;60.84473;95493.16;;;;
2021/04/09 02:12:42;;;;;;;4.5;2.7;;;;;;;-1.1;60.84473;95493.16;;;;
2021/04/09 02:13:44;;;;;;;4.5;2.7;;;;;;;-1.1;60.84473;95493.16;;;;
2021/04/09 02:14:47;;;;;;;4.5;2.7;;;;;;;-1.1;60.84473;95493.16;;;;
2021/04/09 02:15:48;;;;;;;4.5;2.7;;;;;;;-1.1;60.84473;95493.16;;;;
2021/04/09 02:16:53;;;;;;;4.5;2.7;;;;;;;-1.1;60.84473;95493.16;;;;
2021/04/09 02:17:54;;;;;;;4.5;2.7;;;;;;;-1.1;60.84473;95493.16;;;;
2021/04/09 02:18:55;;;;;;;4.5;2.7;;;;;;;-1.1;60.84473;95493.16;;;;
2021/04/09 02:19:56;;;;;;;4.5;2.7;;;;;;;-1.1;60.84473;95493.16;;;;
2021/04/09 02:20:57;;;;;;;4.5;2.7;;;;;;;-1.1;60.84473;95493.16;;;;
2021/04/09 02:21:59;;;;;;;3.7;2.85;;;;;;;-1.01;60.81543;95479.86;;;;
2021/04/09 02:23:00;;;;;;;3.7;2.85;;;;;;;-1.01;60.81543;95479.86;;;;
2021/04/09 02:24:00;;;;;;;3.7;2.85;;;;;;;-1.01;60.81543;95479.86;;;;
2021/04/09 02:25:03;;;;;;;3.7;2.85;;;;;;;-1.01;60.81543;95479.86;;;;
2021/04/09 02:26:05;;;;;;;3.7;2.85;;;;;;;-1.01;60.81543;95479.86;;;;
2021/04/09 02:27:06;;;;;;;3.7;2.85;;;;;;;-1.01;60.81543;95479.86;;;;
2021/04/09 02:28:07;;;;;;;3.7;2.85;;;;;;;-1.01;60.81543;95479.86;;;;
2021/04/09 02:29:08;;;;;;;3.7;2.85;;;;;;;-1.01;60.81543;95479.86;;;;
2021/04/09 02:30:09;;;;;;;3.7;2.85;;;;;;;-1.01;60.81543;95479.86;;;;
2021/04/09 02:31:12;;;;;;;3.7;2.85;;;;;;;-1.01;60.81543;95479.86;;;;
2021/04/09 02:32:13;;;;;;;3.7;2.85;;;;;;;-1.01;60.81543;95479.86;;;;
2021/04/09 02:33:15;;;;;;;4.6;2.45;;;;;;;-1.01;60.58496;95473.24;;;;
2021/04/09 02:34:15;;;;;;;4.6;2.45;;;;;;;-1.01;60.58496;95473.24;;;;
2021/04/09 02:35:16;;;;;;;4.6;2.45;;;;;;;-1.01;60.58496;95473.24;;;;
2021/04/09 02:36:17;;;;;;;4.6;2.45;;;;;;;-1.01;60.58496;95473.24;;;;
2021/04/09 02:37:20;;;;;;;4.6;2.45;;;;;;;-1.01;60.58496;95473.24;;;;
2021/04/09 02:38:22;;;;;;;4.6;2.45;;;;;;;-1.01;60.58496;95473.24;;;;
2021/04/09 02:39:23;;;;;;;4.6;2.45;;;;;;;-1.01;60.58496;95473.24;;;;
2021/04/09 02:40:27;;;;;;;4.6;2.45;;;;;;;-1.01;60.58496;95473.24;;;;
2021/04/09 02:41:34;;;;;;;4.6;2.45;;;;;;;-1.01;60.58496;95473.24;;;;
2021/04/09 02:42:38;;;;;;;4.6;2.45;;;;;;;-1.01;60.58496;95473.24;;;;
2021/04/09 02:43:40;;;;;;;3.45;2.25;;;;;;;-1.08;60.67871;95470.9;;;;
2021/04/09 02:44:41;;;;;;;3.45;2.25;;;;;;;-1.08;60.67871;95470.9;;;;
2021/04/09 02:45:42;;;;;;;3.45;2.25;;;;;;;-1.08;60.67871;95470.9;;;;
2021/04/09 02:46:42;;;;;;;3.45;2.25;;;;;;;-1.08;60.67871;95470.9;;;;
2021/04/09 02:47:48;;;;;;;3.45;2.25;;;;;;;-1.08;60.67871;95470.9;;;;
2021/04/09 02:48:52;;;;;;;3.45;2.25;;;;;;;-1.08;60.67871;95470.9;;;;
2021/04/09 02:50:04;;;;;;;3.45;2.25;;;;;;;-1.08;60.67871;95470.9;;;;
2021/04/09 02:51:12;;;;;;;3.45;2.25;;;;;;;-1.08;60.67871;95470.9;;;;
2021/04/09 02:52:13;;;;;;;3.45;2.25;;;;;;;-1.08;60.67871;95470.9;;;;
2021/04/09 02:53:16;;;;;;;3.45;2.25;;;;;;;-1.08;60.67871;95470.9;;;;
2021/04/09 02:54:19;;;;;;;3.95;2.5;;;;;;;-1.18;60.90625;95454.71;;;;
2021/04/09 02:55:22;;;;;;;3.95;2.5;;;;;;;-1.18;60.90625;95454.71;;;;
2021/04/09 02:56:27;;;;;;;3.95;2.5;;;;;;;-1.18;60.90625;95454.71;;;;
2021/04/09 02:57:30;;;;;;;3.95;2.5;;;;;;;-1.18;60.90625;95454.71;;;;
2021/04/09 02:58:31;;;;;;;3.95;2.5;;;;;;;-1.18;60.90625;95454.71;;;;
2021/04/09 02:59:34;;;;;;;3.95;2.5;;;;;;;-1.18;60.90625;95454.71;;;;
2021/04/09 03:00:36;;;;;;;3.95;2.5;;;;;;;-1.18;60.90625;95454.71;;;;
2021/04/09 03:01:41;;;;;;;3.95;2.5;;;;;;;-1.18;60.90625;95454.71;;;;
2021/04/09 03:02:43;;;;;;;3.95;2.5;;;;;;;-1.18;60.90625;95454.71;;;;
2021/04/09 03:03:46;;;;;;;3.95;2.5;;;;;;;-1.18;60.90625;95454.71;;;;
2021/04/09 03:04:46;;;;;;;4.9;2.35;;;;;;;-1.26;60.74902;95451.11;;;;
2021/04/09 03:05:47;;;;;;;4.9;2.35;;;;;;;-1.26;60.74902;95451.11;;;;
2021/04/09 03:06:50;;;;;;;4.9;2.35;;;;;;;-1.26;60.74902;95451.11;;;;
2021/04/09 03:07:50;;;;;;;4.9;2.35;;;;;;;-1.26;60.74902;95451.11;;;;
2021/04/09 03:08:52;;;;;;;4.9;2.35;;;;;;;-1.26;60.74902;95451.11;;;;
2021/04/09 03:09:53;;;;;;;4.9;2.35;;;;;;;-1.26;60.74902;95451.11;;;;
2021/04/09 03:10:54;;;;;;;4.9;2.35;;;;;;;-1.26;60.74902;95451.11;;;;
2021/04/09 03:11:54;;;;;;;4.9;2.35;;;;;;;-1.26;60.74902;95451.11;;;;
2021/04/09 03:12:55;;;;;;;4.9;2.35;;;;;;;-1.26;60.74902;95451.11;;;;
2021/04/09 03:13:55;;;;;;;4.9;2.35;;;;;;;-1.26;60.74902;95451.11;;;;
2021/04/09 03:14:56;;;;;;;4.9;2.35;;;;;;;-1.26;60.74902;95451.11;;;;
2021/04/09 03:15:57;;;;;;;3.55;2.55;;;;;;;-1.38;60.68848;95445.84;;;;
2021/04/09 03:17:01;;;;;;;3.55;2.55;;;;;;;-1.38;60.68848;95445.84;;;;
2021/04/09 03:18:07;;;;;;;3.55;2.55;;;;;;;-1.38;60.68848;95445.84;;;;
2021/04/09 03:19:10;;;;;;;3.55;2.55;;;;;;;-1.38;60.68848;95445.84;;;;
2021/04/09 03:20:11;;;;;;;3.55;2.55;;;;;;;-1.38;60.68848;95445.84;;;;
2021/04/09 03:21:13;;;;;;;3.55;2.55;;;;;;;-1.38;60.68848;95445.84;;;;
2021/04/09 03:22:13;;;;;;;3.55;2.55;;;;;;;-1.38;60.68848;95445.84;;;;
2021/04/09 03:23:14;;;;;;;3.55;2.55;;;;;;;-1.38;60.68848;95445.84;;;;
2021/04/09 03:24:14;;;;;;;3.55;2.55;;;;;;;-1.38;60.68848;95445.84;;;;
2021/04/09 03:25:15;;;;;;;3.55;2.55;;;;;;;-1.38;60.68848;95445.84;;;;
2021/04/09 03:26:15;;;;;;;11.25;2.7;;;;;;;-1.55;60.8418;95440.09;;;;
2021/04/09 03:27:16;;;;;;;11.25;2.7;;;;;;;-1.55;60.8418;95440.09;;;;
2021/04/09 03:28:16;;;;;;;11.25;2.7;;;;;;;-1.55;60.8418;95440.09;;;;
2021/04/09 03:29:17;;;;;;;11.25;2.7;;;;;;;-1.55;60.8418;95440.09;;;;
2021/04/09 03:30:17;;;;;;;11.25;2.7;;;;;;;-1.55;60.8418;95440.09;;;;
2021/04/09 03:31:21;;;;;;;11.25;2.7;;;;;;;-1.55;60.8418;95440.09;;;;
2021/04/09 03:32:21;;;;;;;11.25;2.7;;;;;;;-1.55;60.8418;95440.09;;;;
2021/04/09 03:33:22;;;;;;;11.25;2.7;;;;;;;-1.55;60.8418;95440.09;;;;
2021/04/09 03:34:24;;;;;;;11.25;2.7;;;;;;;-1.55;60.8418;95440.09;;;;
2021/04/09 03:35:24;;;;;;;11.25;2.7;;;;;;;-1.55;60.8418;95440.09;;;;
2021/04/09 03:36:26;;;;;;;11.25;2.7;;;;;;;-1.55;60.8418;95440.09;;;;
2021/04/09 03:37:26;;;;;;;6.9;2.7;;;;;;;-1.73;60.85742;95442.89;;;;
2021/04/09 03:38:27;;;;;;;6.9;2.7;;;;;;;-1.73;60.85742;95442.89;;;;
2021/04/09 03:39:28;;;;;;;6.9;2.7;;;;;;;-1.73;60.85742;95442.89;;;;
2021/04/09 03:40:29;;;;;;;6.9;2.7;;;;;;;-1.73;60.85742;95442.89;;;;
2021/04/09 03:41:29;;;;;;;6.9;2.7;;;;;;;-1.73;60.85742;95442.89;;;;
2021/04/09 03:42:30;;;;;;;6.9;2.7;;;;;;;-1.73;60.85742;95442.89;;;;
2021/04/09 03:43:30;;;;;;;6.9;2.7;;;;;;;-1.73;60.85742;95442.89;;;;
2021/04/09 03:44:31;;;;;;;6.9;2.7;;;;;;;-1.73;60.85742;95442.89;;;;
2021/04/09 03:45:31;;;;;;;6.9;2.7;;;;;;;-1.73;60.85742;95442.89;;;;
2021/04/09 03:46:32;;;;;;;6.9;2.7;;;;;;;-1.73;60.85742;95442.89;;;;
2021/04/09 03:47:33;;;;;;;3.45;2.65;;;;;;;-1.91;60.95703;95433.77;;;;
2021/04/09 03:48:35;;;;;;;3.45;2.65;;;;;;;-1.91;60.95703;95433.77;;;;
2021/04/09 03:49:35;;;;;;;3.45;2.65;;;;;;;-1.91;60.95703;95433.77;;;;
2021/04/09 03:50:36;;;;;;;3.45;2.65;;;;;;;-1.91;60.95703;95433.77;;;;
2021/04/09 03:51:36;;;;;;;3.45;2.65;;;;;;;-1.91;60.95703;95433.77;;;;
2021/04/09 03:52:37;;;;;;;3.45;2.65;;;;;;;-1.91;60.95703;95433.77;;;;
2021/04/09 03:53:38;;;;;;;3.45;2.65;;;;;;;-1.91;60.95703;95433.77;;;;
2021/04/09 03:54:38;;;;;;;3.45;2.65;;;;;;;-1.91;60.95703;95433.77;;;;
2021/04/09 03:55:39;;;;;;;3.45;2.65;;;;;;;-1.91;60.95703;95433.77;;;;
2021/04/09 03:56:40;;;;;;;3.45;2.65;;;;;;;-1.91;60.95703;95433.77;;;;
2021/04/09 03:57:40;;;;;;;3.45;2.65;;;;;;;-1.91;60.95703;95433.77;;;;
2021/04/09 03:58:41;;;;;;;3.750001;2.7;;;;;;;-2.07;61.04883;95433.58;;;;
2021/04/09 03:59:41;;;;;;;3.750001;2.7;;;;;;;-2.07;61.04883;95433.58;;;;
2021/04/09 04:00:42;;;;;;;3.750001;2.7;;;;;;;-2.07;61.04883;95433.58;;;;
2021/04/09 04:01:42;;;;;;;3.750001;2.7;;;;;;;-2.07;61.04883;95433.58;;;;
2021/04/09 04:02:43;;;;;;;3.750001;2.7;;;;;;;-2.07;61.04883;95433.58;;;;
2021/04/09 04:03:43;;;;;;;3.750001;2.7;;;;;;;-2.07;61.04883;95433.58;;;;
2021/04/09 04:04:47;;;;;;;3.750001;2.7;;;;;;;-2.07;61.04883;95433.58;;;;
2021/04/09 04:05:47;;;;;;;3.750001;2.7;;;;;;;-2.07;61.04883;95433.58;;;;
2021/04/09 04:06:48;;;;;;;3.750001;2.7;;;;;;;-2.07;61.04883;95433.58;;;;
2021/04/09 04:07:48;;;;;;;3.750001;2.7;;;;;;;-2.07;61.04883;95433.58;;;;
2021/04/09 04:08:49;;;;;;;4.3;2.65;;;;;;;-2.27;61.21777;95433.04;;;;
2021/04/09 04:09:50;;;;;;;4.3;2.65;;;;;;;-2.27;61.21777;95433.04;;;;
2021/04/09 04:10:50;;;;;;;4.3;2.65;;;;;;;-2.27;61.21777;95433.04;;;;
2021/04/09 04:11:50;;;;;;;4.3;2.65;;;;;;;-2.27;61.21777;95433.04;;;;
2021/04/09 04:12:52;;;;;;;4.3;2.65;;;;;;;-2.27;61.21777;95433.04;;;;
2021/04/09 04:13:52;;;;;;;4.3;2.65;;;;;;;-2.27;61.21777;95433.04;;;;
2021/04/09 04:14:53;;;;;;;4.3;2.65;;;;;;;-2.27;61.21777;95433.04;;;;
2021/04/09 04:15:53;;;;;;;4.3;2.65;;;;;;;-2.27;61.21777;95433.04;;;;
2021/04/09 04:16:54;;;;;;;4.3;2.65;;;;;;;-2.27;61.21777;95433.04;;;;
2021/04/09 04:17:54;;;;;;;4.3;2.65;;;;;;;-2.27;61.21777;95433.04;;;;
2021/04/09 04:18:55;;;;;;;4.3;2.65;;;;;;;-2.27;61.21777;95433.04;;;;
2021/04/09 04:19:55;;;;;;;5.1;2.55;;;;;;;-2.44;61.41211;95424.65;;;;
2021/04/09 04:20:56;;;;;;;5.1;2.55;;;;;;;-2.44;61.41211;95424.65;;;;
2021/04/09 04:21:57;;;;;;;5.1;2.55;;;;;;;-2.44;61.41211;95424.65;;;;
2021/04/09 04:22:57;;;;;;;5.1;2.55;;;;;;;-2.44;61.41211;95424.65;;;;
2021/04/09 04:23:58;;;;;;;5.1;2.55;;;;;;;-2.44;61.41211;95424.65;;;;
2021/04/09 04:24:59;;;;;;;5.1;2.55;;;;;;;-2.44;61.41211;95424.65;;;;
2021/04/09 04:26:00;;;;;;;5.1;2.55;;;;;;;-2.44;61.41211;95424.65;;;;
2021/04/09 04:27:00;;;;;;;5.1;2.55;;;;;;;-2.44;61.41211;95424.65;;;;
2021/04/09 04:28:01;;;;;;;5.1;2.55;;;;;;;-2.44;61.41211;95424.65;;;;
2021/04/09 04:29:01;;;;;;;5.1;2.55;;;;;;;-2.44;61.41211;95424.65;;;;
2021/04/09 04:30:02;;;;;;;6.2;2.9;;;;;;;-2.57;61.4873;95437.45;;;;
2021/04/09 04:31:04;;;;;;;6.2;2.9;;;;;;;-2.57;61.4873;95437.45;;;;
2021/04/09 04:32:04;;;;;;;6.2;2.9;;;;;;;-2.57;61.4873;95437.45;;;;
2021/04/09 04:33:06;;;;;;;6.2;2.9;;;;;;;-2.57;61.4873;95437.45;;;;
2021/04/09 04:34:06;;;;;;;6.2;2.9;;;;;;;-2.57;61.4873;95437.45;;;;
2021/04/09 04:35:07;;;;;;;6.2;2.9;;;;;;;-2.57;61.4873;95437.45;;;;
2021/04/09 04:36:09;;;;;;;6.2;2.9;;;;;;;-2.57;61.4873;95437.45;;;;
2021/04/09 04:37:10;;;;;;;6.2;2.9;;;;;;;-2.57;61.4873;95437.45;;;;
2021/04/09 04:38:10;;;;;;;6.2;2.9;;;;;;;-2.57;61.4873;95437.45;;;;
2021/04/09 04:39:11;;;;;;;6.2;2.9;;;;;;;-2.57;61.4873;95437.45;;;;
2021/04/09 04:40:11;;;;;;;6.2;2.9;;;;;;;-2.57;61.4873;95437.45;;;;
2021/04/09 04:41:13;;;;;;;5.15;2.5;;;;;;;-2.65;61.60059;95426.79;;;;
2021/04/09 04:42:13;;;;;;;5.15;2.5;;;;;;;-2.65;61.60059;95426.79;;;;
2021/04/09 04:43:14;;;;;;;5.15;2.5;;;;;;;-2.65;61.60059;95426.79;;;;
2021/04/09 04:44:15;;;;;;;5.15;2.5;;;;;;;-2.65;61.60059;95426.79;;;;
2021/04/09 04:45:17;;;;;;;5.15;2.5;;;;;;;-2.65;61.60059;95426.79;;;;
2021/04/09 04:46:18;;;;;;;5.15;2.5;;;;;;;-2.65;61.60059;95426.79;;;;
2021/04/09 04:47:19;;;;;;;5.15;2.5;;;;;;;-2.65;61.60059;95426.79;;;;
2021/04/09 04:48:19;;;;;;;5.15;2.5;;;;;;;-2.65;61.60059;95426.79;;;;
2021/04/09 04:49:20;;;;;;;5.15;2.5;;;;;;;-2.65;61.60059;95426.79;;;;
2021/04/09 04:50:21;;;;;;;5.15;2.5;;;;;;;-2.65;61.60059;95426.79;;;;
2021/04/09 04:51:22;;;;;;;5.950001;2.35;;;;;;;-2.6;61.78516;95428.91;;;;
2021/04/09 04:52:22;;;;;;;5.950001;2.35;;;;;;;-2.6;61.78516;95428.91;;;;
2021/04/09 04:53:23;;;;;;;5.950001;2.35;;;;;;;-2.6;61.78516;95428.91;;;;
2021/04/09 04:54:23;;;;;;;5.950001;2.35;;;;;;;-2.6;61.78516;95428.91;;;;
2021/04/09 04:55:24;;;;;;;5.950001;2.35;;;;;;;-2.6;61.78516;95428.91;;;;
2021/04/09 04:56:25;;;;;;;5.950001;2.35;;;;;;;-2.6;61.78516;95428.91;;;;
2021/04/09 04:57:26;;;;;;;5.950001;2.35;;;;;;;-2.6;61.78516;95428.91;;;;
2021/04/09 04:58:27;;;;;;;5.950001;2.35;;;;;;;-2.6;61.78516;95428.91;;;;
2021/04/09 04:59:27;;;;;;;5.950001;2.35;;;;;;;-2.6;61.78516;95428.91;;;;
2021/04/09 05:00:28;;;;;;;5.950001;2.35;;;;;;;-2.6;61.78516;95428.91;;;;
2021/04/09 05:01:29;;;;;;;5.950001;2.35;;;;;;;-2.6;61.78516;95428.91;;;;
2021/04/09 05:02:29;;;;;;;6.750001;2.1;;;;;;;-2.41;61.61426;95424.75;;;;
2021/04/09 05:03:30;;;;;;;6.750001;2.1;;;;;;;-2.41;61.61426;95424.75;;;;
2021/04/09 05:04:30;;;;;;;6.750001;2.1;;;;;;;-2.41;61.61426;95424.75;;;;
2021/04/09 05:05:31;;;;;;;6.750001;2.1;;;;;;;-2.41;61.61426;95424.75;;;;
2021/04/09 05:06:31;;;;;;;6.750001;2.1;;;;;;;-2.41;61.61426;95424.75;;;;
2021/04/09 05:07:32;;;;;;;6.750001;2.1;;;;;;;-2.41;61.61426;95424.75;;;;
2021/04/09 05:08:33;;;;;;;6.750001;2.1;;;;;;;-2.41;61.61426;95424.75;;;;
2021/04/09 05:09:33;;;;;;;6.750001;2.1;;;;;;;-2.41;61.61426;95424.75;;;;
2021/04/09 05:10:34;;;;;;;6.750001;2.1;;;;;;;-2.41;61.61426;95424.75;;;;
2021/04/09 05:11:34;;;;;;;6.750001;2.1;;;;;;;-2.41;61.61426;95424.75;;;;
2021/04/09 05:12:35;;;;;;;6.750001;2.1;;;;;;;-2.41;61.61426;95424.75;;;;
2021/04/09 05:13:36;;;;;;;2.6;1.7;;;;;;;-1.99;61.41504;95420.9;;;;
2021/04/09 05:14:36;;;;;;;2.6;1.7;;;;;;;-1.99;61.41504;95420.9;;;;
2021/04/09 05:15:37;;;;;;;2.6;1.7;;;;;;;-1.99;61.41504;95420.9;;;;
2021/04/09 05:16:37;;;;;;;2.6;1.7;;;;;;;-1.99;61.41504;95420.9;;;;
2021/04/09 05:17:38;;;;;;;2.6;1.7;;;;;;;-1.99;61.41504;95420.9;;;;
2021/04/09 05:18:39;;;;;;;2.6;1.7;;;;;;;-1.99;61.41504;95420.9;;;;
2021/04/09 05:19:39;;;;;;;2.6;1.7;;;;;;;-1.99;61.41504;95420.9;;;;
2021/04/09 05:20:39;;;;;;;2.6;1.7;;;;;;;-1.99;61.41504;95420.9;;;;
2021/04/09 05:21:40;;;;;;;2.6;1.7;;;;;;;-1.99;61.41504;95420.9;;;;
2021/04/09 05:22:41;;;;;;;2.6;1.7;;;;;;;-1.99;61.41504;95420.9;;;;
2021/04/09 05:23:41;;;;;;;2.45;1.7;;;;;;;-1.65;61.08887;95433.23;;;;
2021/04/09 05:24:42;;;;;;;2.45;1.7;;;;;;;-1.65;61.08887;95433.23;;;;
2021/04/09 05:25:42;;;;;;;2.45;1.7;;;;;;;-1.65;61.08887;95433.23;;;;
2021/04/09 05:26:43;;;;;;;2.45;1.7;;;;;;;-1.65;61.08887;95433.23;;;;
2021/04/09 05:27:43;;;;;;;2.45;1.7;;;;;;;-1.65;61.08887;95433.23;;;;
2021/04/09 05:28:44;;;;;;;2.45;1.7;;;;;;;-1.65;61.08887;95433.23;;;;
2021/04/09 05:29:44;;;;;;;2.45;1.7;;;;;;;-1.65;61.08887;95433.23;;;;
2021/04/09 05:30:45;;;;;;;2.45;1.7;;;;;;;-1.65;61.08887;95433.23;;;;
2021/04/09 05:31:45;;;;;;;2.45;1.7;;;;;;;-1.65;61.08887;95433.23;;;;
2021/04/09 05:32:46;;;;;;;2.45;1.7;;;;;;;-1.65;61.08887;95433.23;;;;
2021/04/09 05:33:47;;;;;;;2.45;1.7;;;;;;;-1.65;61.08887;95433.23;;;;
2021/04/09 05:34:47;;;;;;;3.65;1.8;;;;;;;-1.19;60.91504;95432.78;;;;
2021/04/09 05:35:48;;;;;;;3.65;1.8;;;;;;;-1.19;60.91504;95432.78;;;;
2021/04/09 05:36:48;;;;;;;3.65;1.8;;;;;;;-1.19;60.91504;95432.78;;;;
2021/04/09 05:37:49;;;;;;;3.65;1.8;;;;;;;-1.19;60.91504;95432.78;;;;
2021/04/09 05:38:49;;;;;;;3.65;1.8;;;;;;;-1.19;60.91504;95432.78;;;;
2021/04/09 05:39:50;;;;;;;3.65;1.8;;;;;;;-1.19;60.91504;95432.78;;;;
2021/04/09 05:40:51;;;;;;;3.65;1.8;;;;;;;-1.19;60.91504;95432.78;;;;
2021/04/09 05:41:51;;;;;;;3.65;1.8;;;;;;;-1.19;60.91504;95432.78;;;;
2021/04/09 05:42:52;;;;;;;3.65;1.8;;;;;;;-1.19;60.91504;95432.78;;;;
2021/04/09 05:43:56;;;;;;;3.65;1.8;;;;;;;-1.19;60.91504;95432.78;;;;
2021/04/09 05:44:57;;;;;;;2.7;1.6;;;;;;;-0.51;60.61426;95423.63;;;;
2021/04/09 05:45:58;;;;;;;2.7;1.6;;;;;;;-0.51;60.61426;95423.63;;;;
2021/04/09 05:46:58;;;;;;;2.7;1.6;;;;;;;-0.51;60.61426;95423.63;;;;
2021/04/09 05:48:03;;;;;;;2.7;1.6;;;;;;;-0.51;60.61426;95423.63;;;;
2021/04/09 05:49:04;;;;;;;2.7;1.6;;;;;;;-0.51;60.61426;95423.63;;;;
2021/04/09 05:50:05;;;;;;;2.7;1.6;;;;;;;-0.51;60.61426;95423.63;;;;